Silver Ridge Township, Maine
Current Conditions -  °F | °C
As of 1:53 PM on Saturday 25 Oct 2014 (Local Time) from KMLT Reporting Station
Scattered Clouds Scattered Clouds  
Wind Chill: 53°   Ceiling: Unl
Heat Index: 53°   Visibility: 10mi
Dew Point: 34°   Wind: 6mph
Humidity: 48%   Direction: 110°ESE
Pressure: 29.58"   Gusts: NA
Location:  45.8047°N, 68.2984°W
Report Text: KMLT 251753Z AUTO 11005KT 10SM SCT050 12/01 A2958 RMK AO2 SLP022 T01170011 10122 20067 57018
Loading
Personal Weather Stations






























Interactive Weather Map New forecast layout! Learn more

10-Day Weather Forecast

Advertisements
Track Severe Weather on mobile